BRC weather

San Carlos De Bariloche Airport
San Carlos de Bariloche, Río Negro Province, Argentina

Public forecast

Using degrees Celsius for public forecast. Weather courtesy of forecast.io.

METAR (pilot weather report)

Retrieved 2019/08/24 23:00 UTC (15 minutes ago):

SAZS 242300Z 28011KT 9999 FEW037 SCT050 04/02 Q1016

TAF (pilot weather forecast)

Retrieved 2019/08/24 18:00 UTC (5 hours ago):

TAF SAZS 241700Z 2418/2518 29025KT 9999 FEW035 SCT100 TX12/2518Z TN01/2509Z TEMPO 2418/2424 7000 RA OVC030 BECMG 2500/2503 VRB03KT 9999 BKN025